Time;durP1;ratioP1;P1;durP2;ratioP2;P2;SDS_P1;SDS_P2;PMS_P1;PMS_P2;Temp;Humidity;BMP_temperature;BMP_pressure;BME280_temperature;BME280_humidity;BME280_pressure;Samples;Min_cycle;Max_cycle;Signal;HPM_P1;HPM_P2
2023/07/11 00:00:07;;;;;;;6.72;3.33;;;;;;;21.05;64.58;99531.57;1770873;81;21280;-82
2023/07/11 00:03:12;;;;;;;4.47;3.22;;;;;;;21.06;64.43;99534.63;1770001;81;21348;-81
2023/07/11 00:06:22;;;;;;;5.83;3.95;;;;;;;20.78;65.38;99537.69;1770610;81;21354;-81
2023/07/11 00:09:22;;;;;;;7.87;4.00;;;;;;;20.88;65.39;99537.78;1771244;81;21308;-80
2023/07/11 00:12:28;;;;;;;5.72;3.47;;;;;;;21.13;64.67;99543.61;1769612;81;21356;-81
2023/07/11 00:15:33;;;;;;;7.67;3.87;;;;;;;21.61;63.22;99543.75;1769490;81;21883;-81
2023/07/11 00:18:39;;;;;;;7.35;3.17;;;;;;;21.88;62.16;99547.83;1769420;81;21309;-79
2023/07/11 00:21:45;;;;;;;3.87;3.45;;;;;;;21.91;61.95;99547.27;1771401;81;21296;-81
2023/07/11 00:24:52;;;;;;;8.00;3.98;;;;;;;21.95;61.62;99546.47;1770999;81;21292;-80
2023/07/11 00:27:58;;;;;;;5.40;3.87;;;;;;;21.89;61.60;99552.28;1772702;80;21344;-80
2023/07/11 00:31:06;;;;;;;10.10;3.90;;;;;;;21.86;61.66;99548.63;1784760;80;22579;-80
2023/07/11 00:34:12;;;;;;;9.68;4.12;;;;;;;21.80;61.78;99551.11;1784711;80;21875;-80
2023/07/11 00:37:18;;;;;;;6.78;3.40;;;;;;;21.68;62.15;99549.91;1783994;80;21831;-81
2023/07/11 00:40:23;;;;;;;8.48;3.75;;;;;;;21.38;62.74;99547.19;1784764;80;21275;-80
2023/07/11 00:43:30;;;;;;;9.45;4.08;;;;;;;21.31;63.16;99548.50;1783403;80;22746;-80
2023/07/11 00:46:36;;;;;;;9.68;4.30;;;;;;;21.17;63.46;99552.23;1784455;80;21323;-80
2023/07/11 00:49:41;;;;;;;6.47;4.17;;;;;;;21.21;63.35;99549.77;1783373;80;21319;-80
2023/07/11 00:52:49;;;;;;;7.03;3.77;;;;;;;21.38;62.73;99558.31;1784814;80;21311;-82
2023/07/11 00:55:57;;;;;;;5.53;3.70;;;;;;;21.31;62.89;99552.67;1783094;80;21197;-81
2023/07/11 00:59:04;;;;;;;8.38;3.42;;;;;;;21.18;63.21;99551.16;1784646;80;21299;-81
2023/07/11 01:02:14;;;;;;;6.25;4.25;;;;;;;21.19;63.12;99553.66;1783175;80;21886;-81
2023/07/11 01:05:20;;;;;;;9.55;4.22;;;;;;;20.93;63.69;99549.79;1784919;80;21327;-81
2023/07/11 01:08:27;;;;;;;5.87;4.03;;;;;;;21.24;62.81;99552.03;1783304;80;21339;-81
2023/07/11 01:11:36;;;;;;;6.55;3.98;;;;;;;21.42;62.23;99561.41;1784483;80;21343;-81
2023/07/11 01:14:42;;;;;;;7.55;3.65;;;;;;;21.27;62.58;99560.70;1784654;80;21299;-81
2023/07/11 01:17:48;;;;;;;6.83;4.37;;;;;;;21.40;62.09;99567.22;1783117;80;21292;-81
2023/07/11 01:20:57;;;;;;;8.40;4.17;;;;;;;20.85;63.41;99561.41;1783220;80;21933;-81
2023/07/11 01:23:57;;;;;;;7.70;4.30;;;;;;;20.78;63.69;99555.20;1783331;80;22499;-81
2023/07/11 01:26:48;;;;;;;6.17;4.25;;;;;;;20.54;64.25;99563.55;1784339;80;21322;-81
2023/07/11 01:29:57;;;;;;;5.53;4.03;;;;;;;20.68;64.31;99564.81;1783620;80;21319;-81
2023/07/11 01:33:03;;;;;;;8.08;4.12;;;;;;;20.75;63.87;99566.86;1783325;80;21307;-81
2023/07/11 01:36:10;;;;;;;12.10;4.60;;;;;;;20.41;64.82;99568.34;1783292;80;21638;-81
2023/07/11 01:39:16;;;;;;;14.85;4.95;;;;;;;20.25;65.53;99568.43;1783219;80;21311;-81
2023/07/11 01:42:21;;;;;;;7.87;4.85;;;;;;;20.38;65.19;99568.05;1784549;80;21638;-81
2023/07/11 01:45:27;;;;;;;6.90;5.00;;;;;;;20.24;65.70;99571.76;1784752;80;21272;-81
2023/07/11 01:48:32;;;;;;;5.92;4.62;;;;;;;20.18;65.96;99572.77;1783613;80;21377;-81
2023/07/11 01:51:38;;;;;;;12.23;5.20;;;;;;;20.46;65.07;99579.23;1784656;80;21331;-81
2023/07/11 01:54:45;;;;;;;6.33;4.50;;;;;;;20.63;64.43;99578.10;1784647;80;21291;-81
2023/07/11 01:57:52;;;;;;;6.33;4.45;;;;;;;20.66;64.20;99577.59;1784037;80;21322;-81
2023/07/11 02:00:59;;;;;;;9.65;5.00;;;;;;;20.73;64.14;99577.38;1784638;80;21303;-81
2023/07/11 02:04:04;;;;;;;4.80;3.87;;;;;;;20.27;65.52;99579.55;1784566;80;21314;-81
2023/07/11 02:07:04;;;;;;;5.72;4.25;;;;;;;19.91;66.74;99568.53;1784569;80;21292;-82
2023/07/11 02:09:59;;;;;;;7.65;4.40;;;;;;;19.94;66.93;99571.32;1783140;80;21296;-81
2023/07/11 02:13:12;;;;;;;9.53;4.50;;;;;;;20.59;65.04;99574.16;1827563;76;22221;-81
2023/07/11 02:16:17;;;;;;;9.48;4.53;;;;;;;20.18;66.54;99569.98;1784892;80;21279;-81
2023/07/11 02:19:25;;;;;;;9.43;4.53;;;;;;;20.30;66.74;99579.60;1784967;80;21853;-81
2023/07/11 02:22:31;;;;;;;10.30;4.22;;;;;;;20.72;65.21;99580.42;1783962;80;21304;-81
2023/07/11 02:25:36;;;;;;;6.35;4.67;;;;;;;20.52;64.91;99577.70;1784943;80;21284;-80
2023/07/11 02:28:43;;;;;;;14.03;4.65;;;;;;;20.54;64.96;99589.94;1784987;80;21305;-81
2023/07/11 02:31:49;;;;;;;6.17;4.12;;;;;;;20.93;64.46;99588.70;1783515;80;21329;-81
2023/07/11 02:34:54;;;;;;;5.45;4.00;;;;;;;21.07;64.44;99585.52;1783518;80;21623;-81
2023/07/11 02:38:00;;;;;;;7.40;4.45;;;;;;;21.50;63.16;99590.14;1785048;80;21324;-81
2023/07/11 02:41:06;;;;;;;7.67;4.22;;;;;;;22.06;61.01;99585.50;1784886;80;21301;-80
2023/07/11 02:44:11;;;;;;;8.98;4.28;;;;;;;22.37;60.12;99580.98;1785608;80;21343;-81
2023/07/11 02:47:20;;;;;;;15.43;3.98;;;;;;;22.85;58.80;99581.14;1783496;80;21295;-81
2023/07/11 02:50:25;;;;;;;7.35;3.72;;;;;;;23.37;57.10;99569.55;1783648;80;21874;-81
2023/07/11 02:53:32;;;;;;;6.33;3.77;;;;;;;23.92;54.96;99577.64;1783441;80;21335;-81
2023/07/11 02:56:37;;;;;;;7.50;4.05;;;;;;;24.24;53.59;99588.47;1785711;79;21869;-81
2023/07/11 02:59:43;;;;;;;7.08;4.28;;;;;;;24.40;52.49;99582.28;1817078;79;21838;-81
2023/07/11 03:02:50;;;;;;;7.50;4.55;;;;;;;24.38;51.93;99581.19;1799415;79;21311;-81
2023/07/11 03:05:58;;;;;;;8.73;4.12;;;;;;;24.26;51.52;99590.41;1784941;80;21296;-81
2023/07/11 03:09:06;;;;;;;4.62;3.90;;;;;;;23.94;51.99;99586.56;1785079;80;21855;-81
2023/07/11 03:12:14;;;;;;;11.70;5.20;;;;;;;23.44;53.27;99584.07;1783939;80;21331;-80
2023/07/11 03:15:20;;;;;;;7.90;4.50;;;;;;;22.92;54.77;99584.55;1784064;80;21786;-81
2023/07/11 03:18:26;;;;;;;8.28;4.30;;;;;;;22.91;54.90;99590.38;1784370;80;21315;-81
2023/07/11 03:21:32;;;;;;;10.65;5.00;;;;;;;23.34;54.43;99586.30;1785295;80;21300;-81
2023/07/11 03:24:38;;;;;;;5.58;4.22;;;;;;;23.25;54.56;99584.34;1784666;80;21307;-81
2023/07/11 03:27:43;;;;;;;8.23;4.65;;;;;;;23.01;55.61;99583.46;1772799;80;21312;-81
2023/07/11 03:30:48;;;;;;;9.05;4.62;;;;;;;23.45;54.75;99587.13;1752433;81;21237;-81
2023/07/11 03:33:55;;;;;;;7.40;4.90;;;;;;;23.01;55.83;99591.83;1752455;82;21368;-81
2023/07/11 03:37:01;;;;;;;9.00;5.05;;;;;;;22.94;56.56;99579.53;1753716;82;21327;-81
2023/07/11 03:40:08;;;;;;;12.90;4.90;;;;;;;23.15;56.10;99586.56;1753695;82;21304;-81
2023/07/11 03:43:06;;;;;;;6.92;5.22;;;;;;;23.12;56.27;99583.75;1767643;80;21294;-80
2023/07/11 03:45:58;;;;;;;5.70;4.83;;;;;;;23.53;55.35;99581.00;1783288;80;21903;-80
2023/07/11 03:49:09;;;;;;;6.25;4.47;;;;;;;23.75;54.70;99587.70;1784727;80;21843;-80
2023/07/11 03:52:15;;;;;;;11.53;4.80;;;;;;;24.06;53.73;99584.31;1784615;80;21299;-80
2023/07/11 03:55:21;;;;;;;7.67;5.10;;;;;;;24.10;53.75;99588.22;1783191;80;21295;-80
2023/07/11 03:58:20;;;;;;;7.87;5.25;;;;;;;24.19;53.51;99580.94;1784689;80;21272;-80
2023/07/11 04:01:25;;;;;;;7.53;5.45;;;;;;;24.36;53.09;99579.22;1784618;80;21295;-80
2023/07/11 04:04:31;;;;;;;7.85;5.08;;;;;;;24.35;53.10;99573.33;1783356;80;21319;-80
2023/07/11 04:07:38;;;;;;;7.83;5.17;;;;;;;24.49;52.77;99583.38;1785300;80;21284;-80
2023/07/11 04:10:45;;;;;;;10.65;5.30;;;;;;;24.48;53.02;99580.30;1783288;80;22605;-80
2023/07/11 04:13:50;;;;;;;5.67;5.08;;;;;;;24.21;53.60;99578.67;1783566;80;21323;-81
2023/07/11 04:16:56;;;;;;;8.38;5.58;;;;;;;24.15;53.83;99577.03;1784527;80;21332;-81
2023/07/11 04:20:03;;;;;;;7.58;5.05;;;;;;;23.98;54.86;99578.73;1784715;80;21275;-81
2023/07/11 04:23:09;;;;;;;10.50;5.67;;;;;;;24.04;54.78;99577.33;1784553;80;21851;-81
2023/07/11 04:26:16;;;;;;;10.48;6.05;;;;;;;24.05;54.59;99581.81;1784441;80;21327;-81
2023/07/11 04:29:23;;;;;;;12.50;5.58;;;;;;;24.15;54.47;99578.98;1782257;80;21350;-81
2023/07/11 04:32:29;;;;;;;8.58;5.28;;;;;;;24.26;54.21;99580.63;1781047;80;21326;-80
2023/07/11 04:35:35;;;;;;;8.58;5.33;;;;;;;24.10;54.01;99574.81;1782836;80;21873;-81
2023/07/11 04:38:41;;;;;;;7.55;4.87;;;;;;;24.10;54.13;99578.44;1782932;80;21342;-81
2023/07/11 04:41:48;;;;;;;6.65;5.58;;;;;;;24.13;54.52;99577.86;1783017;80;21307;-81
2023/07/11 04:44:54;;;;;;;8.08;5.22;;;;;;;24.18;54.55;99575.08;1756141;80;21349;-81
2023/07/11 04:48:00;;;;;;;5.47;4.83;;;;;;;24.32;54.69;99575.84;1717822;83;21340;-81
2023/07/11 04:51:07;;;;;;;8.10;5.00;;;;;;;24.42;54.42;99577.27;1717883;83;22159;-81
2023/07/11 04:54:14;;;;;;;7.87;4.80;;;;;;;24.64;53.64;99576.30;1717374;83;21342;-81
2023/07/11 04:57:21;;;;;;;6.20;4.65;;;;;;;24.69;53.07;99575.45;1717914;83;21339;-81
2023/07/11 05:00:27;;;;;;;7.35;5.33;;;;;;;24.66;53.06;99582.47;1716568;83;21355;-81
2023/07/11 05:03:32;;;;;;;10.60;5.53;;;;;;;24.72;52.91;99575.72;1716618;83;21347;-81
2023/07/11 05:06:31;;;;;;;10.30;5.65;;;;;;;24.78;53.10;99570.92;1717790;83;21894;-81
2023/07/11 05:09:36;;;;;;;7.80;4.53;;;;;;;24.85;53.34;99567.27;1716603;83;21869;-81
2023/07/11 05:12:43;;;;;;;6.87;4.28;;;;;;;24.98;53.32;99572.23;1717106;83;21307;-81
2023/07/11 05:15:48;;;;;;;6.30;4.00;;;;;;;25.19;51.65;99566.52;1705986;83;21554;-81
2023/07/11 05:18:55;;;;;;;6.60;4.25;;;;;;;25.38;50.44;99566.66;1710146;83;21354;-81
2023/07/11 05:22:00;;;;;;;6.30;4.35;;;;;;;25.42;50.77;99573.34;1725819;83;21310;-80
2023/07/11 05:25:06;;;;;;;7.90;3.90;;;;;;;25.45;49.79;99569.41;1719362;83;21318;-80
2023/07/11 05:28:14;;;;;;;7.35;3.60;;;;;;;25.32;48.89;99579.86;1697122;84;21658;-80
2023/07/11 05:31:21;;;;;;;8.95;3.60;;;;;;;25.35;48.77;99579.82;1734118;82;21301;-81
2023/07/11 05:34:28;;;;;;;5.12;4.00;;;;;;;25.31;48.76;99570.33;1747678;81;21878;-81
2023/07/11 05:37:34;;;;;;;8.50;4.40;;;;;;;25.39;49.18;99577.55;1756783;81;21383;-81
2023/07/11 05:40:42;;;;;;;15.63;4.55;;;;;;;25.50;48.49;99581.09;1770132;81;21295;-80
2023/07/11 05:43:48;;;;;;;9.28;4.75;;;;;;;25.64;48.54;99585.45;1764551;81;21287;-80
2023/07/11 05:46:54;;;;;;;10.28;4.20;;;;;;;25.58;48.02;99575.44;1688934;82;21349;-80
2023/07/11 05:50:00;;;;;;;7.42;4.70;;;;;;;25.45;48.28;99580.60;1770906;81;21284;-80
2023/07/11 05:53:06;;;;;;;6.58;4.95;;;;;;;25.57;48.47;99574.61;1740296;82;21328;-80
2023/07/11 05:56:11;;;;;;;10.90;5.17;;;;;;;25.73;47.53;99588.73;1739258;82;21898;-81
2023/07/11 05:59:18;;;;;;;7.12;4.87;;;;;;;26.00;47.27;99590.20;1752893;81;21315;-80
2023/07/11 06:02:24;;;;;;;16.70;5.35;;;;;;;26.26;47.11;99585.17;1765695;81;21331;-80
2023/07/11 06:05:30;;;;;;;10.50;6.00;;;;;;;26.37;47.15;99590.09;1763245;81;21292;-81
2023/07/11 06:08:38;;;;;;;14.18;6.05;;;;;;;26.43;46.61;99598.16;1770552;81;21323;-81
2023/07/11 06:11:37;;;;;;;12.13;5.85;;;;;;;26.58;46.76;99587.89;1763605;81;21895;-81
2023/07/11 06:14:44;;;;;;;10.63;5.62;;;;;;;26.66;46.05;99599.28;1769936;81;21332;-81
2023/07/11 06:17:50;;;;;;;10.53;6.45;;;;;;;26.70;47.00;99597.55;1779853;80;21981;-81
2023/07/11 06:20:56;;;;;;;12.58;4.87;;;;;;;26.83;46.23;99593.75;1784520;80;21299;-80
2023/07/11 06:23:57;;;;;;;11.60;5.08;;;;;;;26.84;46.03;99591.21;1784780;80;21196;-80
2023/07/11 06:26:50;;;;;;;6.67;4.50;;;;;;;27.00;45.38;99597.70;1784716;80;21311;-81
2023/07/11 06:29:56;;;;;;;6.78;5.00;;;;;;;27.05;44.59;99606.61;1770401;80;21313;-81
2023/07/11 06:33:02;;;;;;;8.08;4.90;;;;;;;27.15;45.21;99592.48;1753620;82;21967;-80
2023/07/11 06:36:10;;;;;;;6.30;3.98;;;;;;;27.37;44.58;99603.08;1752805;81;21218;-81
2023/07/11 06:39:17;;;;;;;7.70;4.47;;;;;;;27.31;43.81;99603.48;1753552;82;21360;-80
2023/07/11 10:31:14;;;;;;;3.27;2.00;;;;;;;30.91;31.31;99565.20;1694954;83;21300;-80
2023/07/11 10:34:26;;;;;;;3.50;1.77;;;;;;;30.78;31.05;99563.62;1672307;85;21840;-80
2023/07/11 10:37:49;;;;;;;3.83;1.60;;;;;;;30.76;30.22;99562.27;1678789;85;21835;-80
2023/07/11 10:40:54;;;;;;;5.65;2.72;;;;;;;30.65;30.69;99577.25;1668397;85;21339;-80
2023/07/11 10:44:00;;;;;;;9.58;2.62;;;;;;;30.61;32.60;99579.05;1672030;85;21324;-80
2023/07/11 10:47:08;;;;;;;8.60;2.27;;;;;;;30.27;33.26;99583.41;1670249;84;21364;-80
2023/07/11 10:50:21;;;;;;;4.75;2.65;;;;;;;30.02;33.95;99581.28;1671236;85;21332;-80
2023/07/11 10:53:53;;;;;;;2.62;1.90;;;;;;;29.92;34.18;99580.11;1677676;85;21320;-80
2023/07/11 10:57:03;;;;;;;5.30;2.72;;;;;;;29.98;32.85;99577.44;1654212;85;21246;-80
2023/07/11 11:00:09;;;;;;;4.50;2.25;;;;;;;29.96;33.90;99569.28;1676903;84;21324;-80
2023/07/11 11:03:46;;;;;;;12.18;2.40;;;;;;;30.04;33.04;99573.31;1659458;86;21927;-80
2023/07/11 11:07:04;;;;;;;5.28;2.35;;;;;;;30.00;33.09;99576.52;1671551;86;21393;-80
2023/07/11 11:10:35;;;;;;;5.87;2.50;;;;;;;30.07;33.92;99572.68;1643935;87;21342;-80
2023/07/11 11:13:50;;;;;;;6.45;2.22;;;;;;;29.94;34.49;99575.00;1643715;87;21315;-80
2023/07/11 11:17:23;;;;;;;3.92;2.00;;;;;;;29.97;33.99;99571.52;1675254;84;21923;-80
2023/07/11 11:20:36;;;;;;;2.75;1.70;;;;;;;29.84;33.47;99573.87;1674978;85;21339;-80
2023/07/11 11:24:29;;;;;;;2.50;1.62;;;;;;;29.93;32.38;99577.58;1673501;85;21395;-80
2023/07/11 11:27:52;;;;;;;8.60;2.70;;;;;;;30.31;32.23;99577.97;1674166;85;21225;-81
2023/07/11 11:31:28;;;;;;;4.17;2.45;;;;;;;30.59;33.35;99587.61;1675036;85;21336;-80
2023/07/11 11:35:10;;;;;;;7.05;1.90;;;;;;;30.42;33.60;99582.73;1646805;85;21886;-80
2023/07/11 11:38:57;;;;;;;2.35;1.65;;;;;;;30.12;33.33;99582.41;1643635;87;21340;-81
2023/07/11 11:42:09;;;;;;;5.45;2.72;;;;;;;30.54;32.84;99582.37;1655400;86;21401;-81
2023/07/11 11:45:28;;;;;;;3.62;1.72;;;;;;;30.79;32.27;99566.69;1660447;86;21341;-80
2023/07/11 11:48:37;;;;;;;9.55;1.60;;;;;;;30.83;31.83;99575.92;1658248;85;21902;-80
2023/07/11 11:51:44;;;;;;;5.58;2.00;;;;;;;30.89;30.88;99585.89;1643540;87;22630;-80
2023/07/11 11:54:55;;;;;;;7.70;2.60;;;;;;;30.71;31.53;99601.36;1657896;85;21316;-80
2023/07/11 11:58:02;;;;;;;8.55;2.30;;;;;;;30.53;36.80;99606.66;1673604;85;21946;-81
2023/07/11 12:01:09;;;;;;;3.25;1.87;;;;;;;29.55;41.87;99601.94;1678036;85;21335;-81
2023/07/11 12:04:39;;;;;;;3.72;2.12;;;;;;;28.44;43.16;99589.16;1673256;85;21317;-82
2023/07/11 12:07:46;;;;;;;5.80;2.10;;;;;;;27.63;45.72;99588.06;1665855;86;21363;-81
2023/07/11 12:11:19;;;;;;;7.67;2.25;;;;;;;27.45;46.94;99580.50;1660254;86;21335;-80
2023/07/11 12:14:32;;;;;;;3.30;1.37;;;;;;;27.50;43.83;99569.19;1659523;86;22017;-81
2023/07/11 12:17:45;;;;;;;5.28;2.05;;;;;;;27.69;42.76;99574.19;1658354;86;22002;-81
2023/07/11 12:20:56;;;;;;;1.80;1.60;;;;;;;27.64;41.29;99565.85;1641539;87;21435;-81
2023/07/11 12:24:04;;;;;;;3.55;1.85;;;;;;;27.96;42.81;99576.27;1643423;87;21871;-81
2023/07/11 12:27:34;;;;;;;8.40;1.80;;;;;;;28.00;41.37;99568.06;1626611;87;21348;-81
2023/07/11 12:30:47;;;;;;;1.97;1.73;;;;;;;28.10;39.67;99567.03;1668151;85;21320;-81
2023/07/11 12:34:08;;;;;;;2.37;1.55;;;;;;;28.00;40.22;99569.47;1651620;85;21353;-81
2023/07/11 12:37:15;;;;;;;2.60;1.87;;;;;;;28.30;36.88;99562.98;1674603;85;21351;-81
2023/07/11 12:40:24;;;;;;;3.92;1.85;;;;;;;28.46;36.91;99569.98;1647207;87;21368;-81
2023/07/11 12:43:46;;;;;;;3.92;1.90;;;;;;;28.78;36.25;99574.64;1617435;88;21351;-81
2023/07/11 12:46:52;;;;;;;5.55;1.60;;;;;;;28.72;36.78;99573.93;1647075;86;21355;-81
2023/07/11 12:49:59;;;;;;;3.08;1.80;;;;;;;28.89;35.67;99573.84;1638595;87;21917;-79
2023/07/11 12:53:07;;;;;;;2.80;1.55;;;;;;;28.95;35.17;99580.49;1646889;87;21657;-80
2023/07/11 12:56:19;;;;;;;2.10;1.45;;;;;;;28.76;35.31;99577.78;1644154;87;21328;-80
2023/07/11 12:59:33;;;;;;;2.62;1.60;;;;;;;28.84;35.54;99580.98;1642588;87;21335;-80
2023/07/11 13:02:39;;;;;;;1.95;1.45;;;;;;;28.75;35.77;99579.52;1643242;86;21371;-80
2023/07/11 13:05:45;;;;;;;2.08;1.75;;;;;;;28.65;35.50;99583.35;1655893;86;21342;-79
2023/07/11 13:08:53;;;;;;;4.78;1.75;;;;;;;28.66;34.31;99581.40;1656633;86;21240;-79
2023/07/11 13:11:58;;;;;;;3.80;1.82;;;;;;;28.80;34.92;99573.77;1657926;86;21320;-79
2023/07/11 13:15:05;;;;;;;2.00;1.70;;;;;;;29.05;34.87;99585.05;1657837;86;21315;-80
2023/07/11 13:18:10;;;;;;;3.15;1.32;;;;;;;28.91;34.73;99578.02;1625994;86;21346;-79
2023/07/11 13:21:16;;;;;;;2.17;1.50;;;;;;;29.24;34.57;99589.95;1626491;86;21335;-80
2023/07/11 13:24:29;;;;;;;4.58;1.70;;;;;;;29.41;34.72;99578.59;1657763;86;21324;-80
2023/07/11 13:27:37;;;;;;;4.40;1.57;;;;;;;29.46;33.85;99580.70;1657739;86;21339;-80
2023/07/11 13:30:44;;;;;;;2.80;1.80;;;;;;;29.45;33.72;99580.45;1656541;86;21921;-80
2023/07/11 13:33:50;;;;;;;3.35;1.90;;;;;;;29.65;32.94;99589.58;1670249;83;21334;-80
2023/07/11 13:36:58;;;;;;;6.65;1.80;;;;;;;29.84;34.06;99595.84;1691518;84;21359;-79
2023/07/11 13:40:04;;;;;;;6.55;1.60;;;;;;;30.09;34.37;99610.41;1690990;85;21316;-80
2023/07/11 13:43:21;;;;;;;2.08;1.80;;;;;;;29.72;34.96;99599.23;1691074;85;21326;-79
2023/07/11 13:46:28;;;;;;;2.62;1.55;;;;;;;29.64;34.44;99611.29;1690861;85;21865;-80
2023/07/11 13:49:44;;;;;;;1.55;1.40;;;;;;;29.74;34.34;99619.48;1669410;85;21347;-79
2023/07/11 13:53:02;;;;;;;3.35;1.70;;;;;;;29.67;35.31;99630.36;1697292;84;21353;-79
2023/07/11 13:56:06;;;;;;;2.62;1.77;;;;;;;29.60;34.42;99627.75;1653179;86;21376;-80
2023/07/11 13:59:12;;;;;;;2.47;1.52;;;;;;;29.72;34.35;99642.91;1692264;85;21351;-80
2023/07/11 14:02:23;;;;;;;2.12;1.50;;;;;;;29.45;34.92;99625.52;1692244;83;21406;-79
2023/07/11 14:05:32;;;;;;;1.95;1.52;;;;;;;29.45;33.64;99627.48;1685091;84;21320;-79
2023/07/11 14:08:38;;;;;;;6.15;1.82;;;;;;;29.70;33.37;99634.53;1676793;85;21334;-79
2023/07/11 14:11:43;;;;;;;2.17;1.95;;;;;;;29.75;33.52;99638.62;1681255;85;21331;-80
2023/07/11 14:14:50;;;;;;;1.82;1.40;;;;;;;29.99;32.52;99632.08;1681114;85;21339;-80
2023/07/11 14:17:58;;;;;;;5.80;1.55;;;;;;;29.84;31.93;99638.70;1682391;85;21347;-80
2023/07/11 14:21:04;;;;;;;2.20;1.62;;;;;;;29.76;31.81;99643.11;1697128;83;21335;-80
2023/07/11 14:24:15;;;;;;;2.40;1.75;;;;;;;30.07;31.64;99633.30;1717292;83;21322;-80
2023/07/11 14:27:22;;;;;;;2.37;1.70;;;;;;;30.17;31.17;99633.64;1713236;83;21310;-80
2023/07/11 14:30:27;;;;;;;2.08;1.70;;;;;;;30.18;31.12;99637.53;1685649;85;21339;-80
2023/07/11 14:33:37;;;;;;;5.03;1.85;;;;;;;30.17;31.29;99642.92;1715976;83;21351;-80
2023/07/11 14:36:42;;;;;;;4.72;2.15;;;;;;;29.96;31.33;99636.11;1695873;84;21692;-80
2023/07/11 14:39:48;;;;;;;2.17;1.65;;;;;;;29.79;31.94;99645.30;1686529;84;21415;-80
2023/07/11 14:42:55;;;;;;;4.08;1.95;;;;;;;29.61;32.28;99638.69;1712791;84;21897;-80
2023/07/11 14:46:01;;;;;;;2.95;1.65;;;;;;;29.56;32.77;99640.22;1712134;84;21327;-80
2023/07/11 14:49:08;;;;;;;6.65;1.70;;;;;;;29.37;33.08;99646.56;1705991;83;21349;-80
2023/07/11 14:52:17;;;;;;;3.83;1.70;;;;;;;29.49;32.79;99639.78;1754192;82;21294;-79
2023/07/11 14:55:25;;;;;;;4.55;1.60;;;;;;;29.48;32.74;99652.20;1753769;82;21327;-80
2023/07/11 14:58:33;;;;;;;3.58;1.90;;;;;;;29.47;32.52;99648.56;1751805;82;21976;-80
2023/07/11 15:01:39;;;;;;;3.75;1.50;;;;;;;29.27;33.31;99653.27;1753342;82;21323;-80
2023/07/11 15:04:45;;;;;;;2.85;1.65;;;;;;;29.34;33.10;99654.23;1752556;82;21931;-80
2023/07/11 15:07:53;;;;;;;3.90;1.77;;;;;;;29.19;33.44;99658.23;1717277;83;21913;-80
2023/07/11 15:11:22;;;;;;;4.20;1.72;;;;;;;29.26;32.89;99665.08;1715898;83;21354;-80
2023/07/11 15:14:29;;;;;;;5.10;1.72;;;;;;;29.23;33.04;99671.94;1715419;83;21925;-80
2023/07/11 15:17:36;;;;;;;8.68;1.75;;;;;;;29.25;32.95;99675.27;1716614;83;21332;-79
2023/07/11 15:20:35;;;;;;;10.70;1.47;;;;;;;29.09;33.23;99671.96;1715889;83;21885;-80
2023/07/11 15:23:27;;;;;;;6.47;1.80;;;;;;;29.12;33.65;99674.13;1716084;83;21338;-80
2023/07/11 15:26:33;;;;;;;2.60;1.80;;;;;;;29.12;33.42;99678.34;1718135;83;21322;-80
2023/07/11 15:29:38;;;;;;;1.77;1.65;;;;;;;29.07;33.49;99678.46;1716252;83;21670;-80
2023/07/11 15:32:43;;;;;;;4.78;2.15;;;;;;;29.13;33.17;99687.66;1716262;83;21897;-80
2023/07/11 15:35:50;;;;;;;1.98;1.77;;;;;;;29.25;33.15;99690.17;1713927;83;21351;-79
2023/07/11 15:38:57;;;;;;;2.75;2.00;;;;;;;29.28;33.27;99689.55;1708160;83;21938;-80
2023/07/11 15:42:04;;;;;;;3.92;2.00;;;;;;;29.01;33.36;99689.58;1710689;83;21307;-80
2023/07/11 15:45:15;;;;;;;5.28;1.85;;;;;;;28.80;34.09;99699.58;1717259;83;21327;-80
2023/07/11 15:48:20;;;;;;;3.12;1.92;;;;;;;28.75;34.42;99697.70;1694631;83;21331;-80
2023/07/11 15:51:27;;;;;;;4.22;2.20;;;;;;;28.86;34.10;99702.54;1715329;83;21358;-80
2023/07/11 15:54:33;;;;;;;6.70;2.10;;;;;;;28.92;33.58;99704.92;1717068;83;21244;-80
2023/07/11 15:57:38;;;;;;;2.62;2.15;;;;;;;28.87;33.91;99710.66;1705930;84;21882;-80
2023/07/11 16:00:44;;;;;;;5.08;2.35;;;;;;;28.80;34.17;99713.08;1706167;84;21383;-80
2023/07/11 16:03:50;;;;;;;6.40;1.95;;;;;;;28.74;34.28;99712.31;1705460;84;21346;-80
2023/07/11 16:06:59;;;;;;;11.28;2.65;;;;;;;28.66;34.53;99710.24;1706750;84;21319;-80
2023/07/11 16:13:00;;;;;;;12.23;2.27;;;;;;;28.36;35.60;99724.28;1695990;83;21181;-80
2023/07/11 16:16:08;;;;;;;3.60;2.22;;;;;;;28.35;35.88;99720.39;1680000;85;21339;-80
2023/07/11 16:19:26;;;;;;;3.45;2.12;;;;;;;28.53;35.81;99722.30;1685779;85;22614;-80
2023/07/11 16:22:32;;;;;;;9.40;2.20;;;;;;;28.61;35.79;99727.22;1670843;85;21311;-80
2023/07/11 16:25:39;;;;;;;6.97;2.33;;;;;;;28.60;35.59;99718.50;1680581;85;21316;-80
2023/07/11 16:28:45;;;;;;;6.95;2.25;;;;;;;28.67;35.09;99723.16;1703885;83;21299;-80
2023/07/11 16:31:52;;;;;;;5.58;2.10;;;;;;;28.62;35.38;99723.27;1705813;83;21328;-80
2023/07/11 16:34:58;;;;;;;4.92;2.45;;;;;;;28.58;35.45;99729.23;1706965;83;21320;-80
2023/07/11 16:38:03;;;;;;;5.60;2.33;;;;;;;28.37;35.91;99741.45;1694086;83;21376;-80
2023/07/11 16:41:10;;;;;;;3.87;2.30;;;;;;;28.32;36.10;99735.02;1691111;85;21914;-80
2023/07/11 16:44:16;;;;;;;8.73;2.47;;;;;;;28.21;36.33;99743.64;1689252;85;21352;-80
2023/07/11 16:47:23;;;;;;;3.00;2.30;;;;;;;28.46;36.13;99736.75;1690632;85;21342;-80
2023/07/11 16:50:32;;;;;;;3.70;2.15;;;;;;;28.42;36.31;99741.36;1690417;85;21351;-80
2023/07/11 16:53:39;;;;;;;4.45;2.15;;;;;;;28.12;36.95;99748.28;1690445;85;21328;-80
2023/07/11 16:56:46;;;;;;;4.72;2.25;;;;;;;28.30;36.89;99749.97;1690426;85;21308;-80
2023/07/11 16:59:52;;;;;;;4.03;1.98;;;;;;;27.96;37.35;99743.50;1690481;85;21931;-80
2023/07/11 17:02:58;;;;;;;4.67;2.30;;;;;;;27.84;37.63;99744.52;1689842;85;21347;-80
2023/07/11 17:06:04;;;;;;;7.83;2.58;;;;;;;27.80;37.76;99751.05;1690154;85;21919;-80
2023/07/11 17:09:26;;;;;;;3.85;2.58;;;;;;;27.63;38.12;99748.75;1691387;85;21293;-80
2023/07/11 17:12:33;;;;;;;5.00;2.52;;;;;;;27.71;38.10;99755.08;1690768;84;21312;-80
2023/07/11 17:15:40;;;;;;;7.72;2.92;;;;;;;27.66;38.22;99751.77;1690521;85;21882;-80
2023/07/11 17:18:45;;;;;;;9.28;2.20;;;;;;;27.31;38.67;99750.88;1689296;85;21360;-80
2023/07/11 17:21:51;;;;;;;4.03;2.10;;;;;;;27.25;38.66;99750.94;1689822;85;21347;-80
2023/07/11 17:24:58;;;;;;;4.37;2.62;;;;;;;27.12;38.86;99751.66;1690601;85;21300;-80
2023/07/11 17:28:03;;;;;;;2.47;2.22;;;;;;;27.22;38.63;99750.13;1690488;84;21355;-80
2023/07/11 17:31:08;;;;;;;4.47;2.45;;;;;;;27.16;38.73;99752.73;1690559;85;21926;-80
2023/07/11 17:34:24;;;;;;;3.90;2.42;;;;;;;27.14;38.68;99753.59;1690605;85;21312;-80
2023/07/11 17:37:37;;;;;;;7.35;2.75;;;;;;;27.16;38.65;99758.36;1689476;85;21347;-80
2023/07/11 17:40:44;;;;;;;2.80;2.20;;;;;;;27.12;38.83;99757.84;1704474;84;21311;-80
2023/07/11 17:43:50;;;;;;;4.35;2.42;;;;;;;26.95;39.27;99762.49;1704417;84;21603;-80
2023/07/11 17:46:57;;;;;;;10.98;2.75;;;;;;;26.97;39.31;99763.05;1703650;84;21335;-80
2023/07/11 17:50:05;;;;;;;6.30;2.67;;;;;;;26.99;39.21;99763.00;1704677;84;21315;-80
2023/07/11 17:53:12;;;;;;;5.33;2.70;;;;;;;26.86;39.39;99755.86;1703341;83;21250;-80
2023/07/11 17:56:18;;;;;;;4.62;2.80;;;;;;;26.75;39.65;99762.98;1704623;84;21366;-80
2023/07/11 17:59:24;;;;;;;4.05;2.67;;;;;;;26.54;40.71;99773.30;1681640;84;21316;-81
2023/07/11 18:02:34;;;;;;;12.05;2.58;;;;;;;26.42;40.71;99782.08;1675746;85;21320;-81
2023/07/11 18:05:40;;;;;;;6.67;2.35;;;;;;;26.38;40.99;99788.00;1675791;85;21319;-80
2023/07/11 18:08:46;;;;;;;4.78;2.90;;;;;;;26.20;41.03;99791.77;1675137;85;21855;-82
2023/07/11 18:11:54;;;;;;;12.45;2.60;;;;;;;26.10;41.65;99792.42;1676938;85;21324;-82
2023/07/11 18:15:00;;;;;;;2.40;2.20;;;;;;;25.81;42.27;99799.35;1685712;84;21303;-82
2023/07/11 18:18:06;;;;;;;10.13;2.62;;;;;;;25.82;42.44;99792.62;1686424;85;21323;-82
2023/07/11 18:21:11;;;;;;;8.78;2.85;;;;;;;25.87;42.46;99800.42;1686173;85;21885;-82
2023/07/11 18:24:17;;;;;;;10.63;3.00;;;;;;;25.84;42.43;99800.19;1684897;85;21355;-80
2023/07/11 18:27:35;;;;;;;10.08;2.42;;;;;;;25.66;42.88;99802.48;1686152;85;21882;-80
2023/07/11 18:30:41;;;;;;;6.90;2.75;;;;;;;25.74;43.05;99805.25;1686286;85;21664;-81
2023/07/11 18:33:47;;;;;;;6.92;3.58;;;;;;;25.51;43.05;99808.17;1684882;85;21346;-81